sensor_id;sensor_type;location;lat;lon;timestamp;temperature;humidity
40123;DHT22;25832;45.490;4.912;2023-12-28T00:02:06;8.60;99.90
40123;DHT22;25832;45.490;4.912;2023-12-28T00:04:32;8.50;99.90
40123;DHT22;25832;45.490;4.912;2023-12-28T00:07:01;8.50;99.90
40123;DHT22;25832;45.490;4.912;2023-12-28T00:09:27;8.50;99.90
40123;DHT22;25832;45.490;4.912;2023-12-28T00:11:53;8.50;99.90
40123;DHT22;25832;45.490;4.912;2023-12-28T00:14:18;8.50;99.90
40123;DHT22;25832;45.490;4.912;2023-12-28T00:16:44;8.40;99.90
40123;DHT22;25832;45.490;4.912;2023-12-28T00:19:10;8.50;99.90
40123;DHT22;25832;45.490;4.912;2023-12-28T00:21:35;8.50;99.90
40123;DHT22;25832;45.490;4.912;2023-12-28T00:24:01;8.50;99.90
40123;DHT22;25832;45.490;4.912;2023-12-28T00:26:27;8.50;99.90
40123;DHT22;25832;45.490;4.912;2023-12-28T00:28:52;8.50;99.90
40123;DHT22;25832;45.490;4.912;2023-12-28T00:31:18;8.50;99.90
40123;DHT22;25832;45.490;4.912;2023-12-28T00:33:43;8.50;99.90
40123;DHT22;25832;45.490;4.912;2023-12-28T00:36:09;8.50;99.90
40123;DHT22;25832;45.490;4.912;2023-12-28T00:38:35;8.50;99.90
40123;DHT22;25832;45.490;4.912;2023-12-28T00:41:00;8.50;99.90
40123;DHT22;25832;45.490;4.912;2023-12-28T00:43:26;8.50;99.90
40123;DHT22;25832;45.490;4.912;2023-12-28T00:45:52;8.40;99.90
40123;DHT22;25832;45.490;4.912;2023-12-28T00:48:17;8.40;99.90
40123;DHT22;25832;45.490;4.912;2023-12-28T00:50:43;8.40;99.90
40123;DHT22;25832;45.490;4.912;2023-12-28T00:53:08;8.40;99.90
40123;DHT22;25832;45.490;4.912;2023-12-28T00:55:34;8.40;99.90
40123;DHT22;25832;45.490;4.912;2023-12-28T00:58:00;8.40;99.90
40123;DHT22;25832;45.490;4.912;2023-12-28T01:00:25;8.40;99.90
40123;DHT22;25832;45.490;4.912;2023-12-28T01:02:51;8.40;99.90
40123;DHT22;25832;45.490;4.912;2023-12-28T01:05:17;8.40;99.90
40123;DHT22;25832;45.490;4.912;2023-12-28T01:07:42;8.40;99.90
40123;DHT22;25832;45.490;4.912;2023-12-28T01:10:08;8.40;99.90
40123;DHT22;25832;45.490;4.912;2023-12-28T01:12:34;8.40;99.90
40123;DHT22;25832;45.490;4.912;2023-12-28T01:15:00;8.40;99.90
40123;DHT22;25832;45.490;4.912;2023-12-28T01:17:25;8.40;99.90
40123;DHT22;25832;45.490;4.912;2023-12-28T01:19:51;8.40;99.90
40123;DHT22;25832;45.490;4.912;2023-12-28T01:22:16;8.40;99.90
40123;DHT22;25832;45.490;4.912;2023-12-28T01:24:45;8.40;99.90
40123;DHT22;25832;45.490;4.912;2023-12-28T01:27:11;8.30;99.90
40123;DHT22;25832;45.490;4.912;2023-12-28T01:29:36;8.40;99.90
40123;DHT22;25832;45.490;4.912;2023-12-28T01:32:03;8.30;99.90
40123;DHT22;25832;45.490;4.912;2023-12-28T01:34:29;8.30;99.90
40123;DHT22;25832;45.490;4.912;2023-12-28T01:36:55;8.30;99.90
40123;DHT22;25832;45.490;4.912;2023-12-28T01:39:20;8.30;99.90
40123;DHT22;25832;45.490;4.912;2023-12-28T01:41:46;8.30;99.90
40123;DHT22;25832;45.490;4.912;2023-12-28T01:44:12;8.30;99.90
40123;DHT22;25832;45.490;4.912;2023-12-28T01:46:37;8.30;99.90
40123;DHT22;25832;45.490;4.912;2023-12-28T01:49:03;8.30;99.90
40123;DHT22;25832;45.490;4.912;2023-12-28T01:51:30;8.30;99.90
40123;DHT22;25832;45.490;4.912;2023-12-28T01:53:57;8.30;99.90
40123;DHT22;25832;45.490;4.912;2023-12-28T01:56:23;8.30;99.90
40123;DHT22;25832;45.490;4.912;2023-12-28T01:58:50;8.30;99.90
40123;DHT22;25832;45.490;4.912;2023-12-28T02:01:17;8.30;99.90
40123;DHT22;25832;45.490;4.912;2023-12-28T02:03:44;8.30;99.90
40123;DHT22;25832;45.490;4.912;2023-12-28T02:06:10;8.20;99.90
40123;DHT22;25832;45.490;4.912;2023-12-28T02:08:36;8.30;99.90
40123;DHT22;25832;45.490;4.912;2023-12-28T02:11:01;8.30;99.90
40123;DHT22;25832;45.490;4.912;2023-12-28T02:13:28;8.20;99.90
40123;DHT22;25832;45.490;4.912;2023-12-28T02:16:06;8.30;99.90
40123;DHT22;25832;45.490;4.912;2023-12-28T02:18:42;8.20;99.90
40123;DHT22;25832;45.490;4.912;2023-12-28T02:21:09;8.20;99.90
40123;DHT22;25832;45.490;4.912;2023-12-28T02:23:35;8.20;99.90
40123;DHT22;25832;45.490;4.912;2023-12-28T02:26:01;8.20;99.90
40123;DHT22;25832;45.490;4.912;2023-12-28T02:28:26;8.20;99.90
40123;DHT22;25832;45.490;4.912;2023-12-28T02:30:52;8.10;99.90
40123;DHT22;25832;45.490;4.912;2023-12-28T02:33:29;8.10;99.90
40123;DHT22;25832;45.490;4.912;2023-12-28T02:36:02;8.10;99.90
40123;DHT22;25832;45.490;4.912;2023-12-28T02:38:33;8.10;99.90
40123;DHT22;25832;45.490;4.912;2023-12-28T02:41:02;8.10;99.90
40123;DHT22;25832;45.490;4.912;2023-12-28T02:43:28;8.10;99.90
40123;DHT22;25832;45.490;4.912;2023-12-28T02:45:54;8.10;99.90
40123;DHT22;25832;45.490;4.912;2023-12-28T02:48:19;8.10;99.90
40123;DHT22;25832;45.490;4.912;2023-12-28T02:50:45;8.10;99.90
40123;DHT22;25832;45.490;4.912;2023-12-28T02:53:12;8.10;99.90
40123;DHT22;25832;45.490;4.912;2023-12-28T02:55:38;8.20;99.90
40123;DHT22;25832;45.490;4.912;2023-12-28T02:58:03;8.20;99.90
40123;DHT22;25832;45.490;4.912;2023-12-28T03:00:29;8.20;99.90
40123;DHT22;25832;45.490;4.912;2023-12-28T03:02:55;8.20;99.90
40123;DHT22;25832;45.490;4.912;2023-12-28T03:05:21;8.20;99.90
40123;DHT22;25832;45.490;4.912;2023-12-28T03:07:46;8.20;99.90
40123;DHT22;25832;45.490;4.912;2023-12-28T03:10:12;8.20;99.90
40123;DHT22;25832;45.490;4.912;2023-12-28T03:12:38;8.20;99.90
40123;DHT22;25832;45.490;4.912;2023-12-28T03:15:05;8.20;99.90
40123;DHT22;25832;45.490;4.912;2023-12-28T03:17:31;8.20;99.90
40123;DHT22;25832;45.490;4.912;2023-12-28T03:19:58;8.20;99.90
40123;DHT22;25832;45.490;4.912;2023-12-28T03:22:24;8.20;99.90
40123;DHT22;25832;45.490;4.912;2023-12-28T03:24:50;8.20;99.90
40123;DHT22;25832;45.490;4.912;2023-12-28T03:27:15;8.20;99.90
40123;DHT22;25832;45.490;4.912;2023-12-28T03:29:42;8.20;99.90
40123;DHT22;25832;45.490;4.912;2023-12-28T03:32:08;8.20;99.90
40123;DHT22;25832;45.490;4.912;2023-12-28T03:34:34;8.10;99.90
40123;DHT22;25832;45.490;4.912;2023-12-28T03:37:00;8.10;99.90
40123;DHT22;25832;45.490;4.912;2023-12-28T03:39:26;8.10;99.90
40123;DHT22;25832;45.490;4.912;2023-12-28T03:41:52;8.10;99.90
40123;DHT22;25832;45.490;4.912;2023-12-28T03:44:21;8.10;99.90
40123;DHT22;25832;45.490;4.912;2023-12-28T03:46:50;8.10;99.90
40123;DHT22;25832;45.490;4.912;2023-12-28T03:49:20;8.10;99.90
40123;DHT22;25832;45.490;4.912;2023-12-28T03:51:48;8.10;99.90
40123;DHT22;25832;45.490;4.912;2023-12-28T03:54:18;8.10;99.90
40123;DHT22;25832;45.490;4.912;2023-12-28T03:56:45;8.10;99.90
40123;DHT22;25832;45.490;4.912;2023-12-28T03:59:11;8.10;99.90
40123;DHT22;25832;45.490;4.912;2023-12-28T04:01:36;8.10;99.90
40123;DHT22;25832;45.490;4.912;2023-12-28T04:04:02;8.10;99.90
40123;DHT22;25832;45.490;4.912;2023-12-28T04:06:28;8.10;99.90
40123;DHT22;25832;45.490;4.912;2023-12-28T04:08:54;8.20;99.90
40123;DHT22;25832;45.490;4.912;2023-12-28T04:11:19;8.20;99.90
40123;DHT22;25832;45.490;4.912;2023-12-28T04:13:45;8.20;99.90
40123;DHT22;25832;45.490;4.912;2023-12-28T04:16:14;8.20;99.90
40123;DHT22;25832;45.490;4.912;2023-12-28T04:18:44;8.20;99.90
40123;DHT22;25832;45.490;4.912;2023-12-28T04:21:12;8.20;99.90
40123;DHT22;25832;45.490;4.912;2023-12-28T04:23:38;8.20;99.90
40123;DHT22;25832;45.490;4.912;2023-12-28T04:26:04;8.20;99.90
40123;DHT22;25832;45.490;4.912;2023-12-28T04:28:30;8.20;99.90
40123;DHT22;25832;45.490;4.912;2023-12-28T04:30:55;8.20;99.90
40123;DHT22;25832;45.490;4.912;2023-12-28T04:33:22;8.10;99.90
40123;DHT22;25832;45.490;4.912;2023-12-28T04:35:47;8.20;99.90
40123;DHT22;25832;45.490;4.912;2023-12-28T04:38:13;8.10;99.90
40123;DHT22;25832;45.490;4.912;2023-12-28T04:40:39;8.20;99.90
40123;DHT22;25832;45.490;4.912;2023-12-28T04:43:04;8.20;99.90
40123;DHT22;25832;45.490;4.912;2023-12-28T04:45:30;8.20;99.90
40123;DHT22;25832;45.490;4.912;2023-12-28T04:47:56;8.20;99.90
40123;DHT22;25832;45.490;4.912;2023-12-28T04:50:21;8.20;99.90
40123;DHT22;25832;45.490;4.912;2023-12-28T04:52:47;8.20;99.90
40123;DHT22;25832;45.490;4.912;2023-12-28T04:55:13;8.20;99.90
40123;DHT22;25832;45.490;4.912;2023-12-28T04:57:41;8.20;99.90
40123;DHT22;25832;45.490;4.912;2023-12-28T05:00:07;8.20;99.90
40123;DHT22;25832;45.490;4.912;2023-12-28T05:02:33;8.20;99.90
40123;DHT22;25832;45.490;4.912;2023-12-28T05:04:59;8.20;99.90
40123;DHT22;25832;45.490;4.912;2023-12-28T05:07:25;8.20;99.90
40123;DHT22;25832;45.490;4.912;2023-12-28T05:09:51;8.30;99.90
40123;DHT22;25832;45.490;4.912;2023-12-28T05:12:17;8.30;99.90
40123;DHT22;25832;45.490;4.912;2023-12-28T05:14:42;8.30;99.90
40123;DHT22;25832;45.490;4.912;2023-12-28T05:17:08;8.20;99.90
40123;DHT22;25832;45.490;4.912;2023-12-28T05:19:34;8.20;99.90
40123;DHT22;25832;45.490;4.912;2023-12-28T05:21:59;8.20;99.90
40123;DHT22;25832;45.490;4.912;2023-12-28T05:24:29;8.20;99.90
40123;DHT22;25832;45.490;4.912;2023-12-28T05:26:54;8.20;99.90
40123;DHT22;25832;45.490;4.912;2023-12-28T05:29:20;8.30;99.90
40123;DHT22;25832;45.490;4.912;2023-12-28T05:31:46;8.20;99.90
40123;DHT22;25832;45.490;4.912;2023-12-28T05:34:11;8.20;99.90
40123;DHT22;25832;45.490;4.912;2023-12-28T05:36:37;8.20;99.90
40123;DHT22;25832;45.490;4.912;2023-12-28T05:39:03;8.20;99.90
40123;DHT22;25832;45.490;4.912;2023-12-28T05:41:29;8.20;99.90
40123;DHT22;25832;45.490;4.912;2023-12-28T05:43:55;8.30;99.90
40123;DHT22;25832;45.490;4.912;2023-12-28T05:46:20;8.30;99.90
40123;DHT22;25832;45.490;4.912;2023-12-28T05:48:46;8.30;99.90
40123;DHT22;25832;45.490;4.912;2023-12-28T05:51:12;8.30;99.90
40123;DHT22;25832;45.490;4.912;2023-12-28T05:53:37;8.30;99.90
40123;DHT22;25832;45.490;4.912;2023-12-28T05:56:03;8.40;99.90
40123;DHT22;25832;45.490;4.912;2023-12-28T05:58:29;8.40;99.90
40123;DHT22;25832;45.490;4.912;2023-12-28T06:00:55;8.40;99.90
40123;DHT22;25832;45.490;4.912;2023-12-28T06:03:20;8.40;99.90
40123;DHT22;25832;45.490;4.912;2023-12-28T06:05:46;8.40;99.90
40123;DHT22;25832;45.490;4.912;2023-12-28T06:08:12;8.40;99.90
40123;DHT22;25832;45.490;4.912;2023-12-28T06:10:38;8.50;99.90
40123;DHT22;25832;45.490;4.912;2023-12-28T06:13:04;8.50;99.90
40123;DHT22;25832;45.490;4.912;2023-12-28T06:15:30;8.50;99.90
40123;DHT22;25832;45.490;4.912;2023-12-28T06:17:55;8.50;99.90
40123;DHT22;25832;45.490;4.912;2023-12-28T06:20:21;8.50;99.90
40123;DHT22;25832;45.490;4.912;2023-12-28T06:22:47;8.50;99.90
40123;DHT22;25832;45.490;4.912;2023-12-28T06:25:14;8.50;99.90
40123;DHT22;25832;45.490;4.912;2023-12-28T06:27:40;8.60;99.90
40123;DHT22;25832;45.490;4.912;2023-12-28T06:30:06;8.60;99.90
40123;DHT22;25832;45.490;4.912;2023-12-28T06:32:32;8.60;99.90
40123;DHT22;25832;45.490;4.912;2023-12-28T06:34:57;8.60;99.90
40123;DHT22;25832;45.490;4.912;2023-12-28T06:37:23;8.60;99.90
40123;DHT22;25832;45.490;4.912;2023-12-28T06:39:49;8.60;99.90
40123;DHT22;25832;45.490;4.912;2023-12-28T06:42:15;8.60;99.90
40123;DHT22;25832;45.490;4.912;2023-12-28T06:44:40;8.60;99.90
40123;DHT22;25832;45.490;4.912;2023-12-28T06:47:06;8.60;99.90
40123;DHT22;25832;45.490;4.912;2023-12-28T06:49:31;8.60;99.90
40123;DHT22;25832;45.490;4.912;2023-12-28T06:51:57;8.60;99.90
40123;DHT22;25832;45.490;4.912;2023-12-28T06:54:23;8.60;99.90
40123;DHT22;25832;45.490;4.912;2023-12-28T06:56:49;8.60;99.90
40123;DHT22;25832;45.490;4.912;2023-12-28T06:59:16;8.60;99.90
40123;DHT22;25832;45.490;4.912;2023-12-28T07:01:42;8.60;99.90
40123;DHT22;25832;45.490;4.912;2023-12-28T07:04:09;8.60;99.90
40123;DHT22;25832;45.490;4.912;2023-12-28T07:06:35;8.60;99.90
40123;DHT22;25832;45.490;4.912;2023-12-28T07:09:01;8.60;99.90
40123;DHT22;25832;45.490;4.912;2023-12-28T07:11:27;8.60;99.90
40123;DHT22;25832;45.490;4.912;2023-12-28T07:13:53;8.60;99.90
40123;DHT22;25832;45.490;4.912;2023-12-28T07:16:18;8.60;99.90
40123;DHT22;25832;45.490;4.912;2023-12-28T07:18:44;8.60;99.90
40123;DHT22;25832;45.490;4.912;2023-12-28T07:21:10;8.60;99.90
40123;DHT22;25832;45.490;4.912;2023-12-28T07:23:37;8.60;99.90
40123;DHT22;25832;45.490;4.912;2023-12-28T07:26:03;8.60;99.90
40123;DHT22;25832;45.490;4.912;2023-12-28T07:28:29;8.60;99.90
40123;DHT22;25832;45.490;4.912;2023-12-28T07:30:54;8.60;99.90
40123;DHT22;25832;45.490;4.912;2023-12-28T07:33:20;8.70;99.90
40123;DHT22;25832;45.490;4.912;2023-12-28T07:35:46;8.70;99.90
40123;DHT22;25832;45.490;4.912;2023-12-28T07:38:12;8.70;99.90
40123;DHT22;25832;45.490;4.912;2023-12-28T07:40:38;8.70;99.90
40123;DHT22;25832;45.490;4.912;2023-12-28T07:43:04;8.70;99.90
40123;DHT22;25832;45.490;4.912;2023-12-28T07:45:30;8.80;99.90
40123;DHT22;25832;45.490;4.912;2023-12-28T07:47:58;8.70;99.90
40123;DHT22;25832;45.490;4.912;2023-12-28T07:50:24;8.80;99.90
40123;DHT22;25832;45.490;4.912;2023-12-28T07:52:50;8.80;99.90
40123;DHT22;25832;45.490;4.912;2023-12-28T07:55:16;8.80;99.90
40123;DHT22;25832;45.490;4.912;2023-12-28T07:57:42;8.80;99.90
40123;DHT22;25832;45.490;4.912;2023-12-28T08:00:08;8.90;99.90
40123;DHT22;25832;45.490;4.912;2023-12-28T08:02:34;8.90;99.90
40123;DHT22;25832;45.490;4.912;2023-12-28T08:05:00;8.90;99.90
40123;DHT22;25832;45.490;4.912;2023-12-28T08:07:25;8.90;99.90
40123;DHT22;25832;45.490;4.912;2023-12-28T08:09:51;9.00;99.90
40123;DHT22;25832;45.490;4.912;2023-12-28T08:12:17;9.00;99.90
40123;DHT22;25832;45.490;4.912;2023-12-28T08:14:43;9.10;99.90
40123;DHT22;25832;45.490;4.912;2023-12-28T08:17:09;9.10;99.90
40123;DHT22;25832;45.490;4.912;2023-12-28T08:19:35;9.20;99.90
40123;DHT22;25832;45.490;4.912;2023-12-28T08:22:01;9.20;99.90
40123;DHT22;25832;45.490;4.912;2023-12-28T08:24:28;9.20;99.90
40123;DHT22;25832;45.490;4.912;2023-12-28T08:26:53;9.20;99.90
40123;DHT22;25832;45.490;4.912;2023-12-28T08:29:19;9.30;99.90
40123;DHT22;25832;45.490;4.912;2023-12-28T08:31:44;9.30;99.90
40123;DHT22;25832;45.490;4.912;2023-12-28T08:34:10;9.30;99.90
40123;DHT22;25832;45.490;4.912;2023-12-28T08:36:36;9.40;99.90
40123;DHT22;25832;45.490;4.912;2023-12-28T08:39:01;9.30;99.90
40123;DHT22;25832;45.490;4.912;2023-12-28T08:41:27;9.40;99.90
40123;DHT22;25832;45.490;4.912;2023-12-28T08:43:53;9.40;99.90
40123;DHT22;25832;45.490;4.912;2023-12-28T08:46:22;9.40;99.90
40123;DHT22;25832;45.490;4.912;2023-12-28T08:48:50;9.40;99.90
40123;DHT22;25832;45.490;4.912;2023-12-28T08:51:15;9.40;99.90
40123;DHT22;25832;45.490;4.912;2023-12-28T08:53:41;9.40;99.90
40123;DHT22;25832;45.490;4.912;2023-12-28T08:56:16;9.40;99.90
40123;DHT22;25832;45.490;4.912;2023-12-28T08:58:43;9.50;99.90
40123;DHT22;25832;45.490;4.912;2023-12-28T09:01:08;9.50;99.90
40123;DHT22;25832;45.490;4.912;2023-12-28T09:03:34;9.50;99.90
40123;DHT22;25832;45.490;4.912;2023-12-28T09:05:59;9.60;99.90
40123;DHT22;25832;45.490;4.912;2023-12-28T09:08:26;9.60;99.90
40123;DHT22;25832;45.490;4.912;2023-12-28T09:10:52;9.60;99.90
40123;DHT22;25832;45.490;4.912;2023-12-28T09:13:19;9.70;99.90
40123;DHT22;25832;45.490;4.912;2023-12-28T09:15:45;9.70;99.90
40123;DHT22;25832;45.490;4.912;2023-12-28T09:18:11;9.80;99.90
40123;DHT22;25832;45.490;4.912;2023-12-28T09:20:37;9.80;99.90
40123;DHT22;25832;45.490;4.912;2023-12-28T09:23:03;9.90;99.90
40123;DHT22;25832;45.490;4.912;2023-12-28T09:25:28;9.90;99.90
40123;DHT22;25832;45.490;4.912;2023-12-28T09:27:54;10.00;99.90
40123;DHT22;25832;45.490;4.912;2023-12-28T09:30:19;10.00;99.90
40123;DHT22;25832;45.490;4.912;2023-12-28T09:32:45;10.10;99.90
40123;DHT22;25832;45.490;4.912;2023-12-28T09:35:11;10.20;99.90
40123;DHT22;25832;45.490;4.912;2023-12-28T09:37:36;10.20;99.90
40123;DHT22;25832;45.490;4.912;2023-12-28T09:40:02;10.30;99.90
40123;DHT22;25832;45.490;4.912;2023-12-28T09:42:34;10.40;99.90
40123;DHT22;25832;45.490;4.912;2023-12-28T09:45:03;10.50;99.90
40123;DHT22;25832;45.490;4.912;2023-12-28T09:47:32;10.50;99.90
40123;DHT22;25832;45.490;4.912;2023-12-28T09:49:58;10.50;99.90
40123;DHT22;25832;45.490;4.912;2023-12-28T09:52:24;10.50;99.90
40123;DHT22;25832;45.490;4.912;2023-12-28T09:54:49;10.60;99.90
40123;DHT22;25832;45.490;4.912;2023-12-28T09:57:15;10.60;99.90
40123;DHT22;25832;45.490;4.912;2023-12-28T09:59:41;10.60;99.90
40123;DHT22;25832;45.490;4.912;2023-12-28T10:02:08;10.60;99.90
40123;DHT22;25832;45.490;4.912;2023-12-28T10:04:36;10.60;99.90
40123;DHT22;25832;45.490;4.912;2023-12-28T10:07:02;10.50;99.90
40123;DHT22;25832;45.490;4.912;2023-12-28T10:09:28;10.50;99.90
40123;DHT22;25832;45.490;4.912;2023-12-28T10:11:54;10.50;99.90
40123;DHT22;25832;45.490;4.912;2023-12-28T10:14:21;10.50;99.90
40123;DHT22;25832;45.490;4.912;2023-12-28T10:16:47;10.50;99.90
40123;DHT22;25832;45.490;4.912;2023-12-28T10:19:13;10.60;99.90
40123;DHT22;25832;45.490;4.912;2023-12-28T10:21:43;10.70;99.90
40123;DHT22;25832;45.490;4.912;2023-12-28T10:24:10;10.80;99.90
40123;DHT22;25832;45.490;4.912;2023-12-28T10:26:36;10.80;99.90
40123;DHT22;25832;45.490;4.912;2023-12-28T10:29:02;10.90;99.90
40123;DHT22;25832;45.490;4.912;2023-12-28T10:31:29;10.90;99.90
40123;DHT22;25832;45.490;4.912;2023-12-28T10:33:58;11.00;99.90
40123;DHT22;25832;45.490;4.912;2023-12-28T10:36:25;11.00;99.90
40123;DHT22;25832;45.490;4.912;2023-12-28T10:38:53;11.20;99.90
40123;DHT22;25832;45.490;4.912;2023-12-28T10:41:20;11.20;99.90
40123;DHT22;25832;45.490;4.912;2023-12-28T10:43:47;11.30;99.90
40123;DHT22;25832;45.490;4.912;2023-12-28T10:46:27;11.40;99.90
40123;DHT22;25832;45.490;4.912;2023-12-28T10:48:59;11.50;99.90
40123;DHT22;25832;45.490;4.912;2023-12-28T10:51:25;11.70;99.90
40123;DHT22;25832;45.490;4.912;2023-12-28T10:56:46;11.90;99.90
40123;DHT22;25832;45.490;4.912;2023-12-28T11:01:59;12.10;99.90
40123;DHT22;25832;45.490;4.912;2023-12-28T11:04:46;12.10;99.90
40123;DHT22;25832;45.490;4.912;2023-12-28T11:07:14;12.20;99.90
40123;DHT22;25832;45.490;4.912;2023-12-28T11:09:41;12.20;99.90
40123;DHT22;25832;45.490;4.912;2023-12-28T11:12:08;12.20;99.90
40123;DHT22;25832;45.490;4.912;2023-12-28T11:14:38;12.20;99.90
40123;DHT22;25832;45.490;4.912;2023-12-28T11:17:04;12.20;99.90
40123;DHT22;25832;45.490;4.912;2023-12-28T11:19:31;12.20;99.90
40123;DHT22;25832;45.490;4.912;2023-12-28T11:21:57;12.20;99.90
40123;DHT22;25832;45.490;4.912;2023-12-28T11:24:27;12.30;99.90
40123;DHT22;25832;45.490;4.912;2023-12-28T11:26:54;12.30;99.90
40123;DHT22;25832;45.490;4.912;2023-12-28T11:29:20;12.20;99.90
40123;DHT22;25832;45.490;4.912;2023-12-28T11:31:51;12.30;99.90
40123;DHT22;25832;45.490;4.912;2023-12-28T11:34:17;12.30;99.90
40123;DHT22;25832;45.490;4.912;2023-12-28T11:36:49;12.30;99.90
40123;DHT22;25832;45.490;4.912;2023-12-28T11:39:38;12.30;99.90
40123;DHT22;25832;45.490;4.912;2023-12-28T11:42:09;12.30;99.90
40123;DHT22;25832;45.490;4.912;2023-12-28T11:44:42;12.40;99.90
40123;DHT22;25832;45.490;4.912;2023-12-28T11:47:21;12.40;99.90
40123;DHT22;25832;45.490;4.912;2023-12-28T11:49:48;12.40;99.90
40123;DHT22;25832;45.490;4.912;2023-12-28T11:52:46;12.40;99.90
40123;DHT22;25832;45.490;4.912;2023-12-28T11:55:21;12.50;99.90
40123;DHT22;25832;45.490;4.912;2023-12-28T11:57:48;12.40;99.90
40123;DHT22;25832;45.490;4.912;2023-12-28T12:00:13;12.40;99.90
40123;DHT22;25832;45.490;4.912;2023-12-28T12:02:43;12.50;99.90
40123;DHT22;25832;45.490;4.912;2023-12-28T12:05:10;12.40;99.90
40123;DHT22;25832;45.490;4.912;2023-12-28T12:07:37;12.40;99.90
40123;DHT22;25832;45.490;4.912;2023-12-28T12:10:03;12.40;99.90
40123;DHT22;25832;45.490;4.912;2023-12-28T12:12:28;12.40;99.90
40123;DHT22;25832;45.490;4.912;2023-12-28T12:14:54;12.40;99.90
40123;DHT22;25832;45.490;4.912;2023-12-28T12:17:21;12.30;99.90
40123;DHT22;25832;45.490;4.912;2023-12-28T12:19:47;12.30;99.90
40123;DHT22;25832;45.490;4.912;2023-12-28T12:22:16;12.20;99.90
40123;DHT22;25832;45.490;4.912;2023-12-28T12:24:44;12.20;99.90
40123;DHT22;25832;45.490;4.912;2023-12-28T12:27:12;12.10;99.90
40123;DHT22;25832;45.490;4.912;2023-12-28T12:29:37;12.00;99.90
40123;DHT22;25832;45.490;4.912;2023-12-28T12:32:03;11.90;99.90
40123;DHT22;25832;45.490;4.912;2023-12-28T12:34:29;11.90;99.90
40123;DHT22;25832;45.490;4.912;2023-12-28T12:36:55;11.80;99.90
40123;DHT22;25832;45.490;4.912;2023-12-28T12:39:23;11.80;99.90
40123;DHT22;25832;45.490;4.912;2023-12-28T12:41:49;11.80;99.90
40123;DHT22;25832;45.490;4.912;2023-12-28T12:44:15;11.70;99.90
40123;DHT22;25832;45.490;4.912;2023-12-28T12:46:44;11.70;99.90
40123;DHT22;25832;45.490;4.912;2023-12-28T12:49:10;11.60;99.90
40123;DHT22;25832;45.490;4.912;2023-12-28T12:51:36;11.60;99.90
40123;DHT22;25832;45.490;4.912;2023-12-28T12:54:02;11.60;99.90
40123;DHT22;25832;45.490;4.912;2023-12-28T12:56:31;11.60;99.90
40123;DHT22;25832;45.490;4.912;2023-12-28T12:58:58;11.60;99.90
40123;DHT22;25832;45.490;4.912;2023-12-28T13:01:24;11.60;99.90
40123;DHT22;25832;45.490;4.912;2023-12-28T13:03:52;11.60;99.90
40123;DHT22;25832;45.490;4.912;2023-12-28T13:06:18;11.60;99.90
40123;DHT22;25832;45.490;4.912;2023-12-28T13:08:48;11.50;99.90
40123;DHT22;25832;45.490;4.912;2023-12-28T13:11:13;11.50;99.90
40123;DHT22;25832;45.490;4.912;2023-12-28T13:13:39;11.40;99.90
40123;DHT22;25832;45.490;4.912;2023-12-28T13:16:05;11.40;99.90
40123;DHT22;25832;45.490;4.912;2023-12-28T13:18:30;11.40;99.90
40123;DHT22;25832;45.490;4.912;2023-12-28T13:20:57;11.40;99.90
40123;DHT22;25832;45.490;4.912;2023-12-28T13:23:23;11.40;99.90
40123;DHT22;25832;45.490;4.912;2023-12-28T13:25:49;11.30;99.90
40123;DHT22;25832;45.490;4.912;2023-12-28T13:28:14;11.30;99.90
40123;DHT22;25832;45.490;4.912;2023-12-28T13:30:40;11.40;99.90
40123;DHT22;25832;45.490;4.912;2023-12-28T13:33:06;11.40;99.90
40123;DHT22;25832;45.490;4.912;2023-12-28T13:35:32;11.30;99.90
40123;DHT22;25832;45.490;4.912;2023-12-28T13:38:00;11.30;99.90
40123;DHT22;25832;45.490;4.912;2023-12-28T13:40:29;11.40;99.90
40123;DHT22;25832;45.490;4.912;2023-12-28T13:42:56;11.30;99.90
40123;DHT22;25832;45.490;4.912;2023-12-28T13:45:22;11.40;99.90
40123;DHT22;25832;45.490;4.912;2023-12-28T13:47:48;11.40;99.90
40123;DHT22;25832;45.490;4.912;2023-12-28T13:50:13;11.30;99.90
40123;DHT22;25832;45.490;4.912;2023-12-28T13:52:39;11.30;99.90
40123;DHT22;25832;45.490;4.912;2023-12-28T13:55:05;11.30;99.90
40123;DHT22;25832;45.490;4.912;2023-12-28T13:57:31;11.30;99.90
40123;DHT22;25832;45.490;4.912;2023-12-28T13:59:56;11.40;99.90
40123;DHT22;25832;45.490;4.912;2023-12-28T14:02:26;11.30;99.90
40123;DHT22;25832;45.490;4.912;2023-12-28T14:04:51;11.40;99.90
40123;DHT22;25832;45.490;4.912;2023-12-28T14:07:17;11.30;99.90
40123;DHT22;25832;45.490;4.912;2023-12-28T14:09:42;11.30;99.90
40123;DHT22;25832;45.490;4.912;2023-12-28T14:12:09;11.30;99.90
40123;DHT22;25832;45.490;4.912;2023-12-28T14:14:34;11.40;99.90
40123;DHT22;25832;45.490;4.912;2023-12-28T14:17:00;11.40;99.90
40123;DHT22;25832;45.490;4.912;2023-12-28T14:19:25;11.40;99.90
40123;DHT22;25832;45.490;4.912;2023-12-28T14:21:51;11.40;99.90
40123;DHT22;25832;45.490;4.912;2023-12-28T14:24:17;11.40;99.90
40123;DHT22;25832;45.490;4.912;2023-12-28T14:26:44;11.40;99.90
40123;DHT22;25832;45.490;4.912;2023-12-28T14:29:10;11.40;99.90
40123;DHT22;25832;45.490;4.912;2023-12-28T14:31:36;11.40;99.90
40123;DHT22;25832;45.490;4.912;2023-12-28T14:34:03;11.40;99.90
40123;DHT22;25832;45.490;4.912;2023-12-28T14:36:36;11.40;99.90
40123;DHT22;25832;45.490;4.912;2023-12-28T14:39:06;11.40;99.90
40123;DHT22;25832;45.490;4.912;2023-12-28T14:41:33;11.40;99.90
40123;DHT22;25832;45.490;4.912;2023-12-28T14:43:59;11.40;99.90
40123;DHT22;25832;45.490;4.912;2023-12-28T14:46:25;11.30;99.90
40123;DHT22;25832;45.490;4.912;2023-12-28T14:48:52;11.40;99.90
40123;DHT22;25832;45.490;4.912;2023-12-28T14:51:17;11.40;99.90
40123;DHT22;25832;45.490;4.912;2023-12-28T14:53:44;11.40;99.90
40123;DHT22;25832;45.490;4.912;2023-12-28T14:56:10;11.40;99.90
40123;DHT22;25832;45.490;4.912;2023-12-28T14:58:40;11.40;99.90
40123;DHT22;25832;45.490;4.912;2023-12-28T15:01:16;11.40;99.90
40123;DHT22;25832;45.490;4.912;2023-12-28T15:03:42;11.30;99.90
40123;DHT22;25832;45.490;4.912;2023-12-28T15:06:08;11.30;99.90
40123;DHT22;25832;45.490;4.912;2023-12-28T15:08:35;11.40;99.90
40123;DHT22;25832;45.490;4.912;2023-12-28T15:11:02;11.40;99.90
40123;DHT22;25832;45.490;4.912;2023-12-28T15:13:28;11.30;99.90
40123;DHT22;25832;45.490;4.912;2023-12-28T15:15:54;11.30;99.90
40123;DHT22;25832;45.490;4.912;2023-12-28T15:18:20;11.30;99.90
40123;DHT22;25832;45.490;4.912;2023-12-28T15:20:47;11.20;99.90
40123;DHT22;25832;45.490;4.912;2023-12-28T15:23:14;11.30;99.90
40123;DHT22;25832;45.490;4.912;2023-12-28T15:25:41;11.30;99.90
40123;DHT22;25832;45.490;4.912;2023-12-28T15:28:07;11.20;99.90
40123;DHT22;25832;45.490;4.912;2023-12-28T15:30:33;11.30;99.90
40123;DHT22;25832;45.490;4.912;2023-12-28T15:32:58;11.20;99.90
40123;DHT22;25832;45.490;4.912;2023-12-28T15:35:24;11.20;99.90
40123;DHT22;25832;45.490;4.912;2023-12-28T15:37:50;11.30;99.90
40123;DHT22;25832;45.490;4.912;2023-12-28T15:40:16;11.20;99.90
40123;DHT22;25832;45.490;4.912;2023-12-28T15:42:42;11.20;99.90